Time;durP1;ratioP1;P1;durP2;ratioP2;P2;SDS_P1;SDS_P2;PMS_P1;PMS_P2;Temp;Humidity;BMP_temperature;BMP_pressure;BME280_temperature;BME280_humidity;BME280_pressure;Samples;Min_cycle;Max_cycle;Signal;HPM_P1;HPM_P2
2023/11/14 00:00:21;;;;;;;17.92;3.17;;;10.70;99.90;;;;;;4980262;28;20530;-81
2023/11/14 00:02:47;;;;;;;26.10;2.70;;;10.60;99.90;;;;;;4999728;28;20120;-82
2023/11/14 00:05:12;;;;;;;15.05;3.35;;;10.60;99.90;;;;;;4982317;28;20514;-80
2023/11/14 00:07:38;;;;;;;14.23;3.13;;;10.70;99.90;;;;;;4965943;28;20407;-81
2023/11/14 00:10:04;;;;;;;20.08;3.15;;;10.70;99.90;;;;;;4982724;28;20390;-82
2023/11/14 00:12:30;;;;;;;25.67;4.65;;;10.70;99.90;;;;;;4980669;28;20467;-82
2023/11/14 00:14:56;;;;;;;13.65;2.85;;;10.70;99.90;;;;;;4967360;28;20093;-82
2023/11/14 00:17:21;;;;;;;26.73;4.10;;;10.70;99.90;;;;;;4995771;28;20037;-82
2023/11/14 00:19:47;;;;;;;17.65;2.65;;;10.80;99.90;;;;;;4965771;28;20050;-82
2023/11/14 00:22:12;;;;;;;18.35;3.35;;;10.70;99.90;;;;;;4965228;28;20038;-82
2023/11/14 00:24:38;;;;;;;16.70;2.33;;;10.70;99.90;;;;;;4966281;28;20042;-82
2023/11/14 00:27:04;;;;;;;22.45;3.45;;;10.80;99.90;;;;;;4980462;28;20120;-82
2023/11/14 00:29:30;;;;;;;20.65;3.35;;;10.80;99.90;;;;;;4981267;28;20058;-81
2023/11/14 00:31:55;;;;;;;14.93;2.67;;;10.80;99.90;;;;;;4999123;28;20153;-81
2023/11/14 00:34:22;;;;;;;22.67;2.85;;;10.80;99.90;;;;;;4967306;28;20469;-82
2023/11/14 00:36:47;;;;;;;17.63;3.15;;;10.80;99.90;;;;;;4965268;28;20041;-81
2023/11/14 00:39:16;;;;;;;20.13;3.10;;;10.80;99.90;;;;;;4982514;28;20031;-82
2023/11/14 00:41:43;;;;;;;18.60;2.30;;;10.80;99.90;;;;;;4966378;28;20022;-81
2023/11/14 00:44:09;;;;;;;13.98;3.10;;;10.80;99.90;;;;;;4965474;28;20057;-82
2023/11/14 00:46:35;;;;;;;16.48;2.83;;;10.80;99.90;;;;;;4994795;28;20158;-83
2023/11/14 00:49:01;;;;;;;15.50;1.98;;;10.80;99.90;;;;;;4985976;28;20078;-82
2023/11/14 00:51:26;;;;;;;21.85;3.75;;;10.90;99.90;;;;;;4996562;28;20034;-82
2023/11/14 00:53:52;;;;;;;12.10;2.42;;;10.80;99.90;;;;;;4980318;28;20026;-82
2023/11/14 00:56:17;;;;;;;17.08;3.22;;;10.80;99.90;;;;;;4965858;28;20042;-81
2023/11/14 00:58:43;;;;;;;12.73;3.03;;;10.90;99.90;;;;;;4965620;28;20038;-81
2023/11/14 01:01:09;;;;;;;22.00;3.10;;;10.80;99.90;;;;;;4969523;28;20045;-82
2023/11/14 01:03:34;;;;;;;24.65;2.88;;;10.90;99.90;;;;;;4978228;28;20121;-82
2023/11/14 01:06:00;;;;;;;18.33;4.03;;;10.80;99.90;;;;;;4981254;28;20045;-82
2023/11/14 01:08:26;;;;;;;14.70;2.45;;;10.80;99.90;;;;;;4980890;28;20118;-81
2023/11/14 01:10:52;;;;;;;26.88;4.07;;;10.80;99.90;;;;;;4965417;28;20139;-82
2023/11/14 01:13:17;;;;;;;25.63;5.25;;;10.90;99.90;;;;;;5013717;28;20050;-81
2023/11/14 01:15:43;;;;;;;19.45;2.63;;;10.90;99.90;;;;;;4966039;28;20034;-81
2023/11/14 01:18:08;;;;;;;18.63;3.95;;;10.90;99.90;;;;;;4981547;28;20078;-82
2023/11/14 01:20:35;;;;;;;21.35;3.65;;;10.90;99.90;;;;;;4982469;28;20038;-82
2023/11/14 01:23:00;;;;;;;15.77;2.47;;;10.90;99.90;;;;;;4957464;28;20034;-81
2023/11/14 01:25:29;;;;;;;16.20;2.17;;;10.90;99.90;;;;;;4978597;28;20062;-82
2023/11/14 01:27:54;;;;;;;13.02;2.67;;;10.90;99.90;;;;;;4981861;28;20039;-82
2023/11/14 01:30:20;;;;;;;9.93;2.17;;;10.90;99.90;;;;;;4981288;28;20054;-81
2023/11/14 01:32:46;;;;;;;23.50;4.40;;;10.90;99.90;;;;;;4966085;28;20498;-82
2023/11/14 01:35:11;;;;;;;11.45;1.98;;;10.80;99.90;;;;;;4981584;28;20521;-81
2023/11/14 01:37:37;;;;;;;13.52;3.08;;;10.90;99.90;;;;;;4981149;28;20518;-82
2023/11/14 01:40:04;;;;;;;13.68;2.92;;;10.90;99.90;;;;;;4982304;28;20042;-81
2023/11/14 01:42:29;;;;;;;16.38;2.90;;;10.90;99.90;;;;;;4981665;28;20121;-81
2023/11/14 01:44:55;;;;;;;18.33;2.40;;;10.90;99.90;;;;;;4981645;28;20088;-81
2023/11/14 01:47:21;;;;;;;17.42;2.80;;;10.90;99.90;;;;;;4982822;28;20041;-84
2023/11/14 01:49:46;;;;;;;17.15;2.97;;;10.90;99.90;;;;;;4965785;28;20161;-82
2023/11/14 01:52:12;;;;;;;5.82;1.02;;;10.80;99.90;;;;;;4998792;28;20116;-83
2023/11/14 01:54:40;;;;;;;21.35;3.40;;;10.90;99.90;;;;;;4996686;28;20035;-82
2023/11/14 01:57:06;;;;;;;17.45;2.53;;;10.80;99.90;;;;;;4995527;28;20100;-82
2023/11/14 01:59:32;;;;;;;20.80;2.95;;;10.80;99.90;;;;;;4999177;28;20035;-82
2023/11/14 02:01:58;;;;;;;18.35;3.70;;;10.80;99.90;;;;;;5004542;28;20034;-83
2023/11/14 02:04:23;;;;;;;27.23;4.53;;;10.80;99.90;;;;;;4985488;28;20485;-83
2023/11/14 02:06:49;;;;;;;14.77;2.55;;;10.80;99.90;;;;;;4968613;28;20402;-82
2023/11/14 02:09:15;;;;;;;27.38;5.88;;;10.80;99.90;;;;;;5000100;28;20104;-82
2023/11/14 02:11:44;;;;;;;19.42;2.60;;;10.80;99.90;;;;;;4985490;28;20031;-82
2023/11/14 02:14:11;;;;;;;10.70;2.85;;;10.90;99.90;;;;;;4985362;28;20026;-83
2023/11/14 02:16:55;;;;;;;19.92;3.35;;;10.80;99.90;;;;;;4986187;28;20023;-81
2023/11/14 02:19:21;;;;;;;22.88;3.80;;;10.80;99.90;;;;;;4968457;28;20386;-82
2023/11/14 02:21:47;;;;;;;17.88;2.25;;;10.80;99.90;;;;;;4984737;28;20041;-82
2023/11/14 02:24:16;;;;;;;17.73;3.10;;;10.90;99.90;;;;;;4984193;28;20038;-82
2023/11/14 02:26:46;;;;;;;26.15;2.55;;;10.80;99.90;;;;;;4982568;28;20510;-82
2023/11/14 02:29:19;;;;;;;14.05;1.83;;;10.80;99.90;;;;;;4984208;28;20030;-82
2023/11/14 02:31:44;;;;;;;23.48;3.72;;;10.90;99.90;;;;;;4996768;28;20038;-82
2023/11/14 02:34:10;;;;;;;12.07;2.72;;;10.80;99.90;;;;;;4985295;28;20026;-82
2023/11/14 02:36:37;;;;;;;19.83;3.90;;;10.90;99.90;;;;;;4983228;28;20026;-83
2023/11/14 02:39:03;;;;;;;24.40;4.18;;;10.80;99.90;;;;;;4984012;28;20041;-82
2023/11/14 02:41:29;;;;;;;19.30;3.92;;;10.80;99.90;;;;;;4969866;28;20035;-81
2023/11/14 02:43:57;;;;;;;20.63;3.33;;;10.80;99.90;;;;;;4951513;28;20314;-83
2023/11/14 02:46:22;;;;;;;12.25;2.53;;;10.80;99.90;;;;;;4970173;28;20046;-82
2023/11/14 02:48:48;;;;;;;20.17;3.33;;;10.80;99.90;;;;;;4968350;28;20703;-83
2023/11/14 02:51:13;;;;;;;19.50;3.25;;;10.80;99.90;;;;;;4983292;28;20242;-81
2023/11/14 02:53:39;;;;;;;17.70;3.20;;;10.80;99.90;;;;;;4966775;28;20042;-82
2023/11/14 02:56:05;;;;;;;25.70;3.35;;;10.80;99.90;;;;;;4983333;28;20034;-81
2023/11/14 02:58:30;;;;;;;20.85;3.30;;;10.90;99.90;;;;;;4968942;28;20113;-81
2023/11/14 03:00:56;;;;;;;14.77;2.60;;;10.90;99.90;;;;;;4968864;28;20170;-82
2023/11/14 03:03:21;;;;;;;28.60;3.22;;;10.80;99.90;;;;;;4983154;28;20422;-82
2023/11/14 03:05:47;;;;;;;21.05;3.90;;;10.80;99.90;;;;;;4983931;28;20046;-82
2023/11/14 03:08:13;;;;;;;25.30;5.53;;;10.80;99.90;;;;;;4984151;28;20431;-83
2023/11/14 03:10:39;;;;;;;18.35;3.30;;;10.90;99.90;;;;;;4983630;28;20051;-81
2023/11/14 03:13:06;;;;;;;25.42;3.70;;;10.80;99.90;;;;;;4995609;28;20146;-82
2023/11/14 03:15:32;;;;;;;23.05;3.30;;;10.80;99.90;;;;;;4984488;28;20117;-83
2023/11/14 03:17:58;;;;;;;25.55;3.78;;;10.80;99.90;;;;;;4982982;28;20169;-82
2023/11/14 03:20:24;;;;;;;28.42;3.50;;;10.80;99.90;;;;;;4967663;28;20152;-83
2023/11/14 03:22:50;;;;;;;24.60;3.30;;;10.70;99.90;;;;;;4967912;28;20038;-81
2023/11/14 03:25:16;;;;;;;17.40;3.17;;;10.70;99.90;;;;;;4998468;28;20034;-82
2023/11/14 03:27:41;;;;;;;11.32;2.72;;;10.50;99.90;;;;;;4981979;28;20038;-82
2023/11/14 03:30:07;;;;;;;23.35;3.53;;;10.60;99.90;;;;;;4968067;28;20044;-83
2023/11/14 03:32:34;;;;;;;19.88;4.07;;;10.70;99.90;;;;;;4996417;28;20403;-81
2023/11/14 03:35:00;;;;;;;15.52;2.35;;;10.60;99.90;;;;;;4982023;28;20743;-81
2023/11/14 03:37:26;;;;;;;21.88;3.25;;;10.60;99.90;;;;;;4994686;28;20048;-83
2023/11/14 03:39:51;;;;;;;27.08;5.35;;;10.60;99.90;;;;;;4981958;28;20181;-82
2023/11/14 03:42:18;;;;;;;21.55;4.28;;;10.50;99.90;;;;;;4997843;28;20035;-82
2023/11/14 03:44:44;;;;;;;17.40;2.40;;;10.50;99.90;;;;;;4994342;28;20045;-83
2023/11/14 03:47:09;;;;;;;16.08;3.13;;;10.50;99.90;;;;;;4968032;28;20034;-82
2023/11/14 03:49:35;;;;;;;16.77;2.65;;;10.40;99.90;;;;;;4982268;28;20034;-82
2023/11/14 03:52:00;;;;;;;18.30;3.08;;;10.50;99.90;;;;;;4966572;28;20386;-83
2023/11/14 03:54:26;;;;;;;16.10;3.10;;;10.40;99.90;;;;;;4994044;28;20038;-83
2023/11/14 03:56:51;;;;;;;25.83;4.00;;;10.50;99.90;;;;;;4967154;28;20066;-83
2023/11/14 03:59:17;;;;;;;26.25;6.13;;;10.50;99.90;;;;;;4969621;28;20546;-83
2023/11/14 04:01:42;;;;;;;20.05;3.65;;;10.40;99.90;;;;;;4967669;28;20719;-81
2023/11/14 04:04:08;;;;;;;27.55;5.78;;;10.40;99.90;;;;;;4967527;28;20031;-82
2023/11/14 04:06:33;;;;;;;12.55;3.05;;;10.50;99.90;;;;;;4967586;28;20065;-82
2023/11/14 04:08:59;;;;;;;22.17;3.22;;;10.50;99.90;;;;;;4984879;28;20109;-83
2023/11/14 04:11:25;;;;;;;27.33;4.00;;;10.60;99.90;;;;;;4995216;28;20031;-82
2023/11/14 04:13:50;;;;;;;17.30;4.20;;;10.50;99.90;;;;;;4983609;28;20035;-82
2023/11/14 04:16:16;;;;;;;20.48;3.63;;;10.50;99.90;;;;;;4980765;28;20495;-83
2023/11/14 04:18:42;;;;;;;20.13;3.63;;;10.50;99.90;;;;;;4983187;28;20041;-82
2023/11/14 04:21:09;;;;;;;11.23;2.33;;;10.50;99.90;;;;;;4995897;28;20096;-82
2023/11/14 04:23:35;;;;;;;26.45;4.63;;;10.50;99.90;;;;;;4985592;28;20455;-82
2023/11/14 04:26:01;;;;;;;19.77;2.67;;;10.50;99.90;;;;;;4982638;28;20042;-82
2023/11/14 04:28:27;;;;;;;24.95;3.40;;;10.50;99.90;;;;;;4982935;28;20057;-82
2023/11/14 04:30:52;;;;;;;14.13;3.17;;;10.60;99.90;;;;;;4981960;28;20465;-81
2023/11/14 04:33:18;;;;;;;35.03;4.72;;;10.60;99.90;;;;;;4985244;28;20121;-82
2023/11/14 04:35:44;;;;;;;30.95;4.35;;;10.60;99.90;;;;;;4968627;28;20038;-82
2023/11/14 04:38:10;;;;;;;20.45;3.10;;;10.60;99.90;;;;;;4970288;28;20042;-82
2023/11/14 04:40:35;;;;;;;10.57;2.25;;;10.60;99.90;;;;;;4998419;28;20039;-82
2023/11/14 04:43:01;;;;;;;27.55;4.22;;;10.60;99.90;;;;;;5002319;28;20102;-81
2023/11/14 04:45:27;;;;;;;23.23;3.55;;;10.60;99.90;;;;;;4998681;28;20447;-82
2023/11/14 04:47:52;;;;;;;22.08;3.70;;;10.60;99.90;;;;;;4969482;28;20113;-83
2023/11/14 04:50:21;;;;;;;33.08;3.88;;;10.60;99.90;;;;;;5000502;28;20038;-82
2023/11/14 04:52:46;;;;;;;11.95;2.38;;;10.70;99.90;;;;;;4985496;28;20125;-81
2023/11/14 04:55:12;;;;;;;23.77;3.08;;;10.70;99.90;;;;;;4984713;28;20113;-83
2023/11/14 04:57:37;;;;;;;21.90;3.38;;;10.70;99.90;;;;;;4985273;28;20346;-82
2023/11/14 05:00:04;;;;;;;20.40;3.22;;;10.80;99.90;;;;;;4996749;28;20061;-82
2023/11/14 05:02:30;;;;;;;21.02;4.15;;;10.70;99.90;;;;;;4987344;28;20494;-82
2023/11/14 05:04:59;;;;;;;22.25;3.25;;;10.70;99.90;;;;;;4997001;28;20088;-82
2023/11/14 05:07:24;;;;;;;15.10;2.45;;;10.70;99.90;;;;;;4990478;28;20042;-83
2023/11/14 05:09:50;;;;;;;13.80;2.92;;;10.70;99.90;;;;;;4983563;28;20030;-83
2023/11/14 05:12:16;;;;;;;12.20;3.03;;;10.70;99.90;;;;;;4969172;28;20411;-83
2023/11/14 05:14:41;;;;;;;12.65;2.67;;;10.80;99.90;;;;;;4982225;28;20129;-82
2023/11/14 05:17:07;;;;;;;12.68;2.08;;;10.80;99.90;;;;;;4997245;28;20045;-82
2023/11/14 05:19:33;;;;;;;13.27;2.75;;;10.80;99.90;;;;;;4967876;28;20465;-82
2023/11/14 05:21:58;;;;;;;11.38;1.63;;;10.80;99.90;;;;;;5011284;28;20042;-84
2023/11/14 05:24:24;;;;;;;10.07;2.63;;;10.80;99.90;;;;;;4995408;28;20498;-82
2023/11/14 05:26:49;;;;;;;18.70;3.90;;;10.80;99.90;;;;;;4987564;28;20041;-81
2023/11/14 05:29:16;;;;;;;10.27;2.65;;;10.90;99.90;;;;;;4986419;28;20026;-82
2023/11/14 05:31:41;;;;;;;13.93;2.80;;;10.80;99.90;;;;;;4957960;28;20053;-82
2023/11/14 05:34:08;;;;;;;12.57;2.38;;;10.80;99.90;;;;;;5000828;28;20329;-83
2023/11/14 05:36:35;;;;;;;20.15;3.83;;;10.80;99.90;;;;;;5002750;28;20190;-82
2023/11/14 05:39:00;;;;;;;12.80;2.65;;;10.80;99.90;;;;;;4987275;28;20042;-82
2023/11/14 05:41:26;;;;;;;24.60;2.97;;;10.90;99.90;;;;;;4972403;28;20038;-81
2023/11/14 05:43:51;;;;;;;29.77;4.78;;;10.90;99.90;;;;;;4970997;28;20041;-82
2023/11/14 05:46:17;;;;;;;18.88;3.22;;;10.80;99.90;;;;;;4999655;28;20034;-82
2023/11/14 05:48:42;;;;;;;30.58;5.95;;;10.90;99.90;;;;;;4971865;28;20041;-82
2023/11/14 05:51:09;;;;;;;19.48;3.25;;;10.80;99.90;;;;;;4987883;28;21666;-82
2023/11/14 05:53:34;;;;;;;12.80;3.08;;;10.90;99.90;;;;;;4987439;28;20062;-82
2023/11/14 05:56:01;;;;;;;16.05;2.53;;;10.90;99.90;;;;;;4987638;28;20074;-83
2023/11/14 05:58:26;;;;;;;16.00;2.90;;;10.90;99.90;;;;;;5002681;28;20046;-80
2023/11/14 06:00:52;;;;;;;24.10;3.17;;;10.90;99.90;;;;;;4984374;28;20027;-81
2023/11/14 06:03:19;;;;;;;16.40;3.00;;;10.90;99.90;;;;;;4971762;28;20074;-80
2023/11/14 06:05:44;;;;;;;24.63;3.47;;;10.90;99.90;;;;;;4998881;28;20134;-80
2023/11/14 06:08:10;;;;;;;15.27;3.50;;;10.90;99.90;;;;;;4987609;28;20586;-80
2023/11/14 06:10:36;;;;;;;17.67;2.63;;;10.90;99.90;;;;;;5000443;28;20545;-80
2023/11/14 06:13:03;;;;;;;17.05;3.42;;;10.90;99.90;;;;;;4987366;28;20482;-80
2023/11/14 06:15:29;;;;;;;22.27;3.15;;;10.90;99.90;;;;;;4987536;28;20058;-80
2023/11/14 06:17:54;;;;;;;23.58;4.32;;;10.90;99.90;;;;;;4986370;28;20042;-81
2023/11/14 06:20:22;;;;;;;21.02;2.90;;;10.90;99.90;;;;;;4986585;28;20039;-81
2023/11/14 06:22:52;;;;;;;13.65;3.35;;;10.90;99.90;;;;;;4973389;28;20133;-82
2023/11/14 06:25:17;;;;;;;12.00;2.08;;;10.90;99.90;;;;;;4982823;28;20034;-81
2023/11/14 06:27:43;;;;;;;9.48;2.45;;;10.90;99.90;;;;;;4972566;28;20447;-81
2023/11/14 06:30:11;;;;;;;13.85;2.47;;;10.90;99.90;;;;;;5005302;28;20093;-80
2023/11/14 06:32:36;;;;;;;16.88;2.63;;;10.80;99.90;;;;;;5004384;28;20517;-81
2023/11/14 06:35:02;;;;;;;25.13;4.07;;;10.80;99.90;;;;;;5005773;28;20054;-80
2023/11/14 06:37:28;;;;;;;29.88;4.07;;;10.80;99.90;;;;;;4986180;28;20159;-83
2023/11/14 06:39:55;;;;;;;14.40;2.63;;;10.90;99.90;;;;;;4990714;28;20031;-84
2023/11/14 06:42:24;;;;;;;15.65;2.78;;;10.80;99.90;;;;;;4974335;28;20057;-85
2023/11/14 06:44:50;;;;;;;23.83;3.80;;;10.80;99.90;;;;;;4994166;28;20029;-84
2023/11/14 06:47:16;;;;;;;25.50;3.45;;;10.80;99.90;;;;;;4990571;28;20030;-83
2023/11/14 06:49:42;;;;;;;13.00;2.47;;;10.80;99.90;;;;;;4988551;28;20041;-84
2023/11/14 06:52:08;;;;;;;19.30;3.97;;;10.80;99.90;;;;;;4974519;28;20105;-84
2023/11/14 06:54:34;;;;;;;23.02;3.70;;;10.80;99.90;;;;;;4995228;28;20422;-84
2023/11/14 06:56:59;;;;;;;25.23;4.38;;;10.70;99.90;;;;;;4993045;28;20065;-84
2023/11/14 06:59:25;;;;;;;12.25;2.08;;;10.70;99.90;;;;;;4976232;28;20018;-84
2023/11/14 07:01:52;;;;;;;18.23;3.80;;;10.70;99.90;;;;;;4991052;28;20041;-84
2023/11/14 07:04:18;;;;;;;13.82;2.58;;;10.70;99.90;;;;;;4990293;28;20034;-83
2023/11/14 07:06:44;;;;;;;20.17;3.20;;;10.70;99.90;;;;;;4987866;28;20066;-85
2023/11/14 07:09:10;;;;;;;13.93;2.47;;;10.90;99.90;;;;;;4975331;28;20049;-83
2023/11/14 07:11:36;;;;;;;15.50;3.13;;;10.70;99.90;;;;;;4989704;28;20498;-84
2023/11/14 07:14:01;;;;;;;16.60;2.33;;;10.80;99.90;;;;;;4974780;28;20030;-84
2023/11/14 07:16:27;;;;;;;14.98;3.20;;;10.80;99.90;;;;;;4974176;28;20023;-83
2023/11/14 07:18:54;;;;;;;15.45;2.83;;;10.80;99.90;;;;;;4989269;28;20050;-84
2023/11/14 07:21:19;;;;;;;13.65;3.03;;;10.90;99.90;;;;;;4988630;28;20042;-84
2023/11/14 07:23:45;;;;;;;21.48;4.10;;;10.90;99.90;;;;;;5003508;28;20064;-84
2023/11/14 07:26:10;;;;;;;14.25;2.55;;;10.90;99.90;;;;;;4986022;28;20376;-83
2023/11/14 07:28:37;;;;;;;12.38;3.45;;;10.80;99.90;;;;;;4995725;28;20034;-83
2023/11/14 07:31:03;;;;;;;20.70;3.03;;;10.80;99.90;;;;;;4986765;28;20125;-84
2023/11/14 07:33:28;;;;;;;12.98;2.10;;;10.80;99.90;;;;;;4998812;28;20033;-84
2023/11/14 07:35:56;;;;;;;19.20;3.88;;;10.90;99.90;;;;;;5001165;28;20030;-84
2023/11/14 07:38:21;;;;;;;14.57;3.10;;;10.90;99.90;;;;;;4985124;28;20040;-82
2023/11/14 07:40:47;;;;;;;28.13;3.72;;;11.00;99.90;;;;;;5001450;28;20530;-83
2023/11/14 07:43:12;;;;;;;18.42;3.60;;;11.00;99.90;;;;;;4986558;28;20042;-83
2023/11/14 07:45:38;;;;;;;31.63;3.33;;;11.10;99.90;;;;;;4983217;28;20030;-83
2023/11/14 07:48:04;;;;;;;14.80;3.88;;;11.00;99.90;;;;;;4953312;28;20125;-82
2023/11/14 07:50:29;;;;;;;10.48;2.38;;;11.10;99.90;;;;;;4971223;28;20636;-83
2023/11/14 07:52:55;;;;;;;18.38;3.22;;;11.20;99.90;;;;;;4969333;28;20435;-84
2023/11/14 07:55:21;;;;;;;17.52;2.63;;;11.00;99.90;;;;;;4967184;28;20058;-84
2023/11/14 07:57:47;;;;;;;21.67;2.65;;;11.10;99.90;;;;;;4983821;28;20121;-84
2023/11/14 08:00:13;;;;;;;15.63;3.72;;;11.10;99.90;;;;;;4984759;28;20030;-83
2023/11/14 08:02:39;;;;;;;23.02;3.78;;;11.20;99.90;;;;;;4984343;28;20053;-83
2023/11/14 08:05:05;;;;;;;11.75;2.45;;;11.20;99.90;;;;;;4969986;28;20346;-85
2023/11/14 08:07:31;;;;;;;33.55;4.47;;;11.20;99.90;;;;;;5006334;28;20056;-85
2023/11/14 08:09:56;;;;;;;19.75;2.30;;;11.30;99.90;;;;;;4969237;28;20471;-84
2023/11/14 08:12:22;;;;;;;11.60;1.75;;;11.30;99.90;;;;;;4995043;28;20030;-85
2023/11/14 08:14:49;;;;;;;21.42;1.73;;;11.30;99.90;;;;;;5017205;28;20033;-83
2023/11/14 08:17:14;;;;;;;13.25;2.75;;;11.30;99.90;;;;;;4995940;28;20061;-85
2023/11/14 08:19:40;;;;;;;9.15;1.92;;;11.30;99.90;;;;;;4997319;28;20621;-84
2023/11/14 08:22:08;;;;;;;17.65;2.17;;;11.30;99.90;;;;;;4985027;28;20030;-81
2023/11/14 08:24:34;;;;;;;21.75;3.13;;;11.40;99.90;;;;;;4969416;28;20414;-77
2023/11/14 08:27:00;;;;;;;17.35;3.17;;;11.40;99.90;;;;;;4983587;28;20023;-78
2023/11/14 08:29:25;;;;;;;17.05;3.35;;;11.40;99.90;;;;;;4969014;28;20030;-77
2023/11/14 08:31:51;;;;;;;9.27;2.00;;;11.40;99.90;;;;;;4982915;28;20383;-80
2023/11/14 08:34:16;;;;;;;15.48;2.28;;;11.50;99.90;;;;;;4983272;28;20034;-79
2023/11/14 08:36:42;;;;;;;21.30;3.38;;;11.40;99.90;;;;;;4968681;28;20026;-78
2023/11/14 08:39:13;;;;;;;25.70;3.97;;;11.50;99.90;;;;;;4966621;28;20026;-79
2023/11/14 08:41:40;;;;;;;11.55;3.88;;;11.60;99.90;;;;;;4968178;28;20044;-80
2023/11/14 08:44:07;;;;;;;20.58;2.50;;;11.60;99.90;;;;;;4969359;28;20038;-80
2023/11/14 08:46:33;;;;;;;8.30;2.25;;;11.60;99.90;;;;;;4969349;28;20027;-79
2023/11/14 08:48:59;;;;;;;12.52;3.17;;;11.70;99.90;;;;;;5000847;28;20129;-79
2023/11/14 08:51:25;;;;;;;17.13;2.83;;;11.70;99.90;;;;;;4986802;28;20034;-78
2023/11/14 08:53:51;;;;;;;11.43;1.95;;;11.70;99.90;;;;;;4984690;28;20054;-79
2023/11/14 08:56:17;;;;;;;14.68;3.08;;;11.80;99.90;;;;;;4984076;28;20102;-78
2023/11/14 08:58:42;;;;;;;16.98;2.88;;;11.80;99.90;;;;;;4982869;28;20053;-78
2023/11/14 09:01:10;;;;;;;15.95;2.90;;;11.80;99.90;;;;;;4970656;28;20050;-78
2023/11/14 09:03:35;;;;;;;19.17;3.75;;;11.70;99.90;;;;;;4985771;28;20034;-79
2023/11/14 09:06:01;;;;;;;14.75;2.65;;;11.80;99.90;;;;;;5004972;28;20398;-78
2023/11/14 09:08:27;;;;;;;16.35;2.92;;;11.80;99.90;;;;;;4986983;28;20473;-77
2023/11/14 09:10:52;;;;;;;14.65;3.33;;;11.90;99.90;;;;;;4986930;28;20088;-78
2023/11/14 09:13:18;;;;;;;24.25;3.28;;;12.00;99.90;;;;;;5000993;28;20379;-78
2023/11/14 09:15:43;;;;;;;15.18;3.33;;;12.00;99.90;;;;;;5000464;28;20096;-78
2023/11/14 09:18:10;;;;;;;18.17;4.13;;;12.00;99.90;;;;;;4987570;28;20068;-79
2023/11/14 09:20:36;;;;;;;17.00;2.67;;;12.10;99.90;;;;;;4987843;28;20034;-78
2023/11/14 09:23:02;;;;;;;13.75;2.13;;;12.00;99.90;;;;;;4989427;28;20573;-78
2023/11/14 09:25:27;;;;;;;21.05;2.30;;;12.10;99.90;;;;;;4985850;28;20700;-79
2023/11/14 09:27:53;;;;;;;13.68;2.33;;;12.10;99.90;;;;;;4997114;28;20035;-77
2023/11/14 09:30:19;;;;;;;12.05;2.67;;;12.10;99.90;;;;;;5016061;28;20053;-78
2023/11/14 09:32:46;;;;;;;13.02;2.90;;;12.20;99.90;;;;;;4985988;28;20467;-79
2023/11/14 09:35:11;;;;;;;17.70;3.45;;;12.20;99.90;;;;;;4986886;28;20045;-78
2023/11/14 09:37:37;;;;;;;24.10;3.80;;;12.30;99.90;;;;;;4970562;28;20034;-78
2023/11/14 09:40:06;;;;;;;14.15;2.13;;;12.30;99.90;;;;;;4987706;28;20030;-77
2023/11/14 09:42:32;;;;;;;18.35;3.25;;;12.30;99.90;;;;;;5002801;28;20410;-78
2023/11/14 09:44:58;;;;;;;14.15;3.05;;;12.30;99.90;;;;;;4986677;28;20089;-78
2023/11/14 09:47:24;;;;;;;7.40;1.80;;;12.40;99.90;;;;;;4985403;28;21860;-77
2023/11/14 09:49:49;;;;;;;13.10;2.17;;;12.50;99.90;;;;;;4969538;28;20431;-78
2023/11/14 09:52:15;;;;;;;27.25;4.45;;;12.50;99.90;;;;;;4985587;28;20556;-78
2023/11/14 09:54:41;;;;;;;20.50;3.03;;;12.50;99.90;;;;;;4970251;28;20436;-78
2023/11/14 09:57:10;;;;;;;13.55;1.77;;;12.60;99.90;;;;;;4985975;28;20026;-79
2023/11/14 09:59:36;;;;;;;19.42;3.50;;;12.60;99.90;;;;;;4969700;28;20063;-78
2023/11/14 10:02:03;;;;;;;13.23;2.70;;;12.60;99.90;;;;;;4988913;28;20042;-79
2023/11/14 10:04:28;;;;;;;14.32;3.33;;;12.70;99.90;;;;;;4984288;28;20073;-79
2023/11/14 10:06:55;;;;;;;14.35;2.17;;;12.70;99.90;;;;;;4996675;28;20030;-79
2023/11/14 10:09:21;;;;;;;22.05;3.15;;;12.80;99.90;;;;;;4994138;28;20403;-78
2023/11/14 10:11:47;;;;;;;17.23;3.95;;;12.80;99.90;;;;;;4967639;28;20029;-79
2023/11/14 10:14:15;;;;;;;8.38;1.88;;;12.80;99.90;;;;;;4968969;28;20466;-79
2023/11/14 10:16:41;;;;;;;14.98;2.03;;;12.80;99.90;;;;;;4999580;28;20022;-78
2023/11/14 10:19:11;;;;;;;12.40;2.22;;;12.80;99.90;;;;;;4983328;28;20499;-79
2023/11/14 10:21:37;;;;;;;18.05;2.65;;;12.90;99.90;;;;;;4954041;28;20038;-78
2023/11/14 10:24:13;;;;;;;16.85;3.10;;;12.80;99.90;;;;;;4987360;28;20450;-79
2023/11/14 10:26:58;;;;;;;;;;;12.80;99.90;;;;;;4979844;28;20075;-78
2023/11/14 10:29:24;;;;;;;16.30;2.53;;;12.70;99.90;;;;;;4985401;28;19914;-77
2023/11/14 10:31:51;;;;;;;22.58;2.85;;;12.70;99.90;;;;;;4984511;28;20030;-78
2023/11/14 10:34:27;;;;;;;12.40;3.55;;;12.70;99.90;;;;;;4985439;28;20447;-79
2023/11/14 10:36:54;;;;;;;;;;;12.80;99.90;;;;;;4983476;28;20093;-80
2023/11/14 10:39:20;;;;;;;9.82;3.60;;;12.80;99.90;;;;;;4969305;28;19918;-78
2023/11/14 10:41:45;;;;;;;8.50;3.17;;;12.70;99.90;;;;;;4998037;28;20038;-78
2023/11/14 10:44:12;;;;;;;22.05;3.80;;;12.60;99.90;;;;;;4983936;28;20499;-79
2023/11/14 10:46:58;;;;;;;11.38;2.10;;;12.70;99.90;;;;;;4994396;28;20603;-78
2023/11/14 10:49:24;;;;;;;13.23;2.17;;;12.70;99.90;;;;;;4994866;28;20030;-78
2023/11/14 10:51:50;;;;;;;17.95;4.25;;;12.60;99.90;;;;;;4985397;28;20487;-79
2023/11/14 10:54:18;;;;;;;9.80;1.98;;;12.60;99.90;;;;;;4967730;28;20034;-77
2023/11/14 10:56:44;;;;;;;17.38;2.47;;;12.60;99.90;;;;;;4982771;28;20034;-77
2023/11/14 10:59:13;;;;;;;9.20;1.60;;;12.50;99.90;;;;;;4996735;28;20477;-78
2023/11/14 11:01:47;;;;;;;10.75;2.33;;;12.60;99.90;;;;;;4983359;28;20027;-78
2023/11/14 11:04:14;;;;;;;9.23;3.03;;;12.60;99.90;;;;;;4981186;28;20133;-78
2023/11/14 11:06:40;;;;;;;13.93;1.70;;;12.60;99.90;;;;;;4982483;28;20054;-78
2023/11/14 11:09:06;;;;;;;19.67;2.00;;;12.50;99.90;;;;;;4980727;28;20030;-79
2023/11/14 11:11:38;;;;;;;7.95;1.42;;;12.50;99.90;;;;;;4984119;28;20030;-78
2023/11/14 11:14:05;;;;;;;10.10;2.00;;;12.50;99.90;;;;;;4968029;28;20038;-79
2023/11/14 11:16:44;;;;;;;14.43;2.90;;;12.50;99.90;;;;;;4983857;28;20200;-77
2023/11/14 11:19:10;;;;;;;22.00;2.72;;;12.50;99.90;;;;;;4983208;28;20058;-78
2023/11/14 11:21:36;;;;;;;10.18;1.85;;;12.60;99.90;;;;;;4983887;28;20038;-78
2023/11/14 11:24:05;;;;;;;9.77;1.70;;;12.60;99.90;;;;;;4981694;28;20445;-78
2023/11/14 11:26:31;;;;;;;18.25;3.50;;;12.60;99.90;;;;;;4965942;28;20030;-77
2023/11/14 11:28:57;;;;;;;9.32;1.70;;;12.60;99.90;;;;;;4980855;28;20576;-78
2023/11/14 11:31:25;;;;;;;7.68;2.45;;;12.60;99.90;;;;;;4997711;28;20039;-78
2023/11/14 11:33:51;;;;;;;5.10;1.33;;;12.60;99.90;;;;;;4968931;28;20562;-83
2023/11/14 11:36:25;;;;;;;13.23;2.38;;;12.70;99.90;;;;;;4998868;28;20096;-83
2023/11/14 11:38:59;;;;;;;13.27;2.10;;;12.80;99.90;;;;;;5001370;28;20042;-83
2023/11/14 11:41:26;;;;;;;7.38;1.17;;;12.80;99.90;;;;;;5014394;28;20042;-83
2023/11/14 11:44:09;;;;;;;7.15;1.05;;;12.80;99.90;;;;;;4968436;28;20034;-83
2023/11/14 11:46:42;;;;;;;9.23;2.13;;;12.90;99.90;;;;;;4981209;28;20034;-83
2023/11/14 11:49:10;;;;;;;12.05;2.30;;;12.90;99.90;;;;;;4982549;28;20034;-84
2023/11/14 11:51:37;;;;;;;8.70;1.52;;;12.90;99.90;;;;;;4986295;28;20031;-83
2023/11/14 11:54:27;;;;;;;9.50;2.65;;;12.90;99.90;;;;;;4985491;28;20561;-82
2023/11/14 11:57:05;;;;;;;11.15;1.65;;;12.90;99.90;;;;;;4981191;28;20483;-83
2023/11/14 11:59:51;;;;;;;5.07;1.70;;;12.90;99.90;;;;;;4982646;28;21061;-82
2023/11/14 12:02:17;;;;;;;;;;;12.90;99.90;;;;;;4980288;28;20105;-83
2023/11/14 12:04:43;;;;;;;4.60;1.77;;;12.90;99.90;;;;;;4968478;28;20465;-82
2023/11/14 12:07:09;;;;;;;10.35;2.17;;;13.00;99.90;;;;;;4987923;28;20107;-82
2023/11/14 12:09:35;;;;;;;10.30;2.15;;;13.00;99.90;;;;;;4981871;28;20109;-83
2023/11/14 12:12:01;;;;;;;15.75;1.92;;;13.00;99.90;;;;;;4996642;28;20031;-83
2023/11/14 12:14:26;;;;;;;7.18;1.10;;;13.00;99.90;;;;;;4983752;28;20030;-82
2023/11/14 12:16:52;;;;;;;10.73;1.67;;;13.10;99.90;;;;;;4968471;28;20488;-82
2023/11/14 12:19:17;;;;;;;9.85;1.58;;;13.00;99.90;;;;;;4997264;28;20053;-83
2023/11/14 12:21:44;;;;;;;6.68;2.20;;;13.00;99.90;;;;;;4984161;28;20068;-83
2023/11/14 12:24:11;;;;;;;11.88;2.45;;;13.00;99.90;;;;;;4983551;28;20100;-82
2023/11/14 12:26:37;;;;;;;18.88;2.30;;;13.00;99.90;;;;;;4993496;28;20039;-83
2023/11/14 12:29:13;;;;;;;7.68;1.52;;;13.10;99.90;;;;;;4966911;28;20051;-83
2023/11/14 12:31:38;;;;;;;;;;;12.90;99.90;;;;;;4954323;28;20030;-83
2023/11/14 12:34:08;;;;;;;12.00;2.63;;;12.90;99.90;;;;;;4989152;28;19921;-83